sensor_id;sensor_type;location;lat;lon;timestamp;temperature;humidity
5258;DHT22;2651;51.594;9.928;2022-09-29T00:00:54;7.70;99.90
5258;DHT22;2651;51.594;9.928;2022-09-29T00:01:56;7.70;99.90
5258;DHT22;2651;51.594;9.928;2022-09-29T00:02:58;7.60;99.90
5258;DHT22;2651;51.594;9.928;2022-09-29T00:03:59;7.60;99.90
5258;DHT22;2651;51.594;9.928;2022-09-29T00:05:01;7.50;99.90
5258;DHT22;2651;51.594;9.928;2022-09-29T00:06:03;7.50;99.90
5258;DHT22;2651;51.594;9.928;2022-09-29T00:07:04;7.40;99.90
5258;DHT22;2651;51.594;9.928;2022-09-29T00:08:06;7.40;99.90
5258;DHT22;2651;51.594;9.928;2022-09-29T00:09:08;7.40;99.90
5258;DHT22;2651;51.594;9.928;2022-09-29T00:10:09;7.40;99.90
5258;DHT22;2651;51.594;9.928;2022-09-29T00:11:15;7.40;99.90
5258;DHT22;2651;51.594;9.928;2022-09-29T00:12:17;7.40;99.90
5258;DHT22;2651;51.594;9.928;2022-09-29T00:13:18;7.40;99.90
5258;DHT22;2651;51.594;9.928;2022-09-29T00:14:21;7.50;99.90
5258;DHT22;2651;51.594;9.928;2022-09-29T00:15:23;7.50;99.90
5258;DHT22;2651;51.594;9.928;2022-09-29T00:16:24;7.50;99.90
5258;DHT22;2651;51.594;9.928;2022-09-29T00:17:26;7.50;99.90
5258;DHT22;2651;51.594;9.928;2022-09-29T00:18:29;7.50;99.90
5258;DHT22;2651;51.594;9.928;2022-09-29T00:19:31;7.50;99.90
5258;DHT22;2651;51.594;9.928;2022-09-29T00:20:34;7.50;99.90
5258;DHT22;2651;51.594;9.928;2022-09-29T00:21:36;7.50;99.90
5258;DHT22;2651;51.594;9.928;2022-09-29T00:22:37;7.50;99.90
5258;DHT22;2651;51.594;9.928;2022-09-29T00:23:39;7.40;99.90
5258;DHT22;2651;51.594;9.928;2022-09-29T00:24:41;7.30;99.90
5258;DHT22;2651;51.594;9.928;2022-09-29T00:25:43;7.40;99.90
5258;DHT22;2651;51.594;9.928;2022-09-29T00:26:44;7.30;99.90
5258;DHT22;2651;51.594;9.928;2022-09-29T00:27:47;7.40;99.90
5258;DHT22;2651;51.594;9.928;2022-09-29T00:28:51;7.30;99.90
5258;DHT22;2651;51.594;9.928;2022-09-29T00:29:54;7.30;99.90
5258;DHT22;2651;51.594;9.928;2022-09-29T00:30:57;7.30;99.90
5258;DHT22;2651;51.594;9.928;2022-09-29T00:32:00;7.30;99.90
5258;DHT22;2651;51.594;9.928;2022-09-29T00:33:02;7.30;99.90
5258;DHT22;2651;51.594;9.928;2022-09-29T00:34:04;7.30;99.90
5258;DHT22;2651;51.594;9.928;2022-09-29T00:35:06;7.30;99.90
5258;DHT22;2651;51.594;9.928;2022-09-29T00:36:11;7.30;99.90
5258;DHT22;2651;51.594;9.928;2022-09-29T00:37:13;7.40;99.90
5258;DHT22;2651;51.594;9.928;2022-09-29T00:38:14;7.40;99.90
5258;DHT22;2651;51.594;9.928;2022-09-29T00:39:16;7.40;99.90
5258;DHT22;2651;51.594;9.928;2022-09-29T00:40:17;7.40;99.90
5258;DHT22;2651;51.594;9.928;2022-09-29T00:41:25;7.30;99.90
5258;DHT22;2651;51.594;9.928;2022-09-29T00:42:27;7.30;99.90
5258;DHT22;2651;51.594;9.928;2022-09-29T00:45:05;7.20;99.90
5258;DHT22;2651;51.594;9.928;2022-09-29T00:46:13;7.10;99.90
5258;DHT22;2651;51.594;9.928;2022-09-29T00:47:18;7.10;99.90
5258;DHT22;2651;51.594;9.928;2022-09-29T00:48:25;7.10;99.90
5258;DHT22;2651;51.594;9.928;2022-09-29T00:49:46;7.10;99.90
5258;DHT22;2651;51.594;9.928;2022-09-29T00:50:52;7.00;99.90
5258;DHT22;2651;51.594;9.928;2022-09-29T00:53:02;7.00;99.90
5258;DHT22;2651;51.594;9.928;2022-09-29T00:54:07;7.00;99.90
5258;DHT22;2651;51.594;9.928;2022-09-29T00:55:17;7.00;99.90
5258;DHT22;2651;51.594;9.928;2022-09-29T00:56:21;7.00;99.90
5258;DHT22;2651;51.594;9.928;2022-09-29T00:57:27;7.10;99.90
5258;DHT22;2651;51.594;9.928;2022-09-29T00:58:44;7.10;99.90
5258;DHT22;2651;51.594;9.928;2022-09-29T00:59:57;7.10;99.90
5258;DHT22;2651;51.594;9.928;2022-09-29T01:01:02;7.10;99.90
5258;DHT22;2651;51.594;9.928;2022-09-29T01:02:04;7.10;99.90
5258;DHT22;2651;51.594;9.928;2022-09-29T01:03:09;7.10;99.90
5258;DHT22;2651;51.594;9.928;2022-09-29T01:04:16;7.10;99.90
5258;DHT22;2651;51.594;9.928;2022-09-29T01:05:24;7.10;99.90
5258;DHT22;2651;51.594;9.928;2022-09-29T01:06:43;7.10;99.90
5258;DHT22;2651;51.594;9.928;2022-09-29T01:07:46;7.10;99.90
5258;DHT22;2651;51.594;9.928;2022-09-29T01:09:58;7.10;99.90
5258;DHT22;2651;51.594;9.928;2022-09-29T01:11:01;7.10;99.90
5258;DHT22;2651;51.594;9.928;2022-09-29T01:12:04;7.10;99.90
5258;DHT22;2651;51.594;9.928;2022-09-29T01:13:06;7.10;99.90
5258;DHT22;2651;51.594;9.928;2022-09-29T01:14:10;7.10;99.90
5258;DHT22;2651;51.594;9.928;2022-09-29T01:15:13;7.10;99.90
5258;DHT22;2651;51.594;9.928;2022-09-29T01:16:15;7.10;99.90
5258;DHT22;2651;51.594;9.928;2022-09-29T01:17:17;7.10;99.90
5258;DHT22;2651;51.594;9.928;2022-09-29T01:18:18;7.00;99.90
5258;DHT22;2651;51.594;9.928;2022-09-29T01:21:14;6.90;99.90
5258;DHT22;2651;51.594;9.928;2022-09-29T01:25:02;6.80;99.90
5258;DHT22;2651;51.594;9.928;2022-09-29T01:31:57;6.90;99.90
5258;DHT22;2651;51.594;9.928;2022-09-29T01:33:11;6.90;99.90
5258;DHT22;2651;51.594;9.928;2022-09-29T01:34:36;6.90;99.90
5258;DHT22;2651;51.594;9.928;2022-09-29T01:37:13;6.90;99.90
5258;DHT22;2651;51.594;9.928;2022-09-29T01:39:06;6.90;99.90
5258;DHT22;2651;51.594;9.928;2022-09-29T01:40:15;6.90;99.90
5258;DHT22;2651;51.594;9.928;2022-09-29T01:42:29;6.70;99.90
5258;DHT22;2651;51.594;9.928;2022-09-29T01:43:50;6.70;99.90
5258;DHT22;2651;51.594;9.928;2022-09-29T01:45:13;6.70;99.90
5258;DHT22;2651;51.594;9.928;2022-09-29T01:46:30;6.70;99.90
5258;DHT22;2651;51.594;9.928;2022-09-29T01:47:43;6.60;99.90
5258;DHT22;2651;51.594;9.928;2022-09-29T01:48:49;6.70;99.90
5258;DHT22;2651;51.594;9.928;2022-09-29T01:50:03;6.70;99.90
5258;DHT22;2651;51.594;9.928;2022-09-29T01:51:13;6.60;99.90
5258;DHT22;2651;51.594;9.928;2022-09-29T01:52:20;6.50;99.90
5258;DHT22;2651;51.594;9.928;2022-09-29T01:53:46;6.50;99.90
5258;DHT22;2651;51.594;9.928;2022-09-29T01:54:57;6.50;99.90
5258;DHT22;2651;51.594;9.928;2022-09-29T01:56:08;6.50;99.90
5258;DHT22;2651;51.594;9.928;2022-09-29T01:57:23;6.40;99.90
5258;DHT22;2651;51.594;9.928;2022-09-29T01:58:37;6.30;99.90
5258;DHT22;2651;51.594;9.928;2022-09-29T01:59:50;6.30;99.90
5258;DHT22;2651;51.594;9.928;2022-09-29T02:00:57;6.20;99.90
5258;DHT22;2651;51.594;9.928;2022-09-29T02:02:04;6.30;99.90
5258;DHT22;2651;51.594;9.928;2022-09-29T02:03:29;6.30;99.90
5258;DHT22;2651;51.594;9.928;2022-09-29T02:04:39;6.40;99.90
5258;DHT22;2651;51.594;9.928;2022-09-29T02:05:48;6.40;99.90
5258;DHT22;2651;51.594;9.928;2022-09-29T02:06:56;6.40;99.90
5258;DHT22;2651;51.594;9.928;2022-09-29T02:08:12;6.40;99.90
5258;DHT22;2651;51.594;9.928;2022-09-29T02:09:21;6.40;99.90
5258;DHT22;2651;51.594;9.928;2022-09-29T02:10:32;6.30;99.90
5258;DHT22;2651;51.594;9.928;2022-09-29T02:11:38;6.30;99.90
5258;DHT22;2651;51.594;9.928;2022-09-29T02:12:41;6.30;99.90
5258;DHT22;2651;51.594;9.928;2022-09-29T02:14:06;6.30;99.90
5258;DHT22;2651;51.594;9.928;2022-09-29T02:15:16;6.40;99.90
5258;DHT22;2651;51.594;9.928;2022-09-29T02:16:23;6.40;99.90
5258;DHT22;2651;51.594;9.928;2022-09-29T02:17:30;6.30;99.90
5258;DHT22;2651;51.594;9.928;2022-09-29T02:18:42;6.30;99.90
5258;DHT22;2651;51.594;9.928;2022-09-29T02:19:50;6.30;99.90
5258;DHT22;2651;51.594;9.928;2022-09-29T02:20:52;6.30;99.90
5258;DHT22;2651;51.594;9.928;2022-09-29T02:21:54;6.30;99.90
5258;DHT22;2651;51.594;9.928;2022-09-29T02:22:55;6.30;99.90
5258;DHT22;2651;51.594;9.928;2022-09-29T02:23:57;6.30;99.90
5258;DHT22;2651;51.594;9.928;2022-09-29T02:24:59;6.30;99.90
5258;DHT22;2651;51.594;9.928;2022-09-29T02:26:01;6.30;99.90
5258;DHT22;2651;51.594;9.928;2022-09-29T02:27:04;6.30;99.90
5258;DHT22;2651;51.594;9.928;2022-09-29T02:28:06;6.40;99.90
5258;DHT22;2651;51.594;9.928;2022-09-29T02:29:08;6.40;99.90
5258;DHT22;2651;51.594;9.928;2022-09-29T02:30:10;6.30;99.90
5258;DHT22;2651;51.594;9.928;2022-09-29T02:31:13;6.30;99.90
5258;DHT22;2651;51.594;9.928;2022-09-29T02:32:15;6.30;99.90
5258;DHT22;2651;51.594;9.928;2022-09-29T02:33:21;6.30;99.90
5258;DHT22;2651;51.594;9.928;2022-09-29T02:34:23;6.30;99.90
5258;DHT22;2651;51.594;9.928;2022-09-29T02:35:34;6.20;99.90
5258;DHT22;2651;51.594;9.928;2022-09-29T02:37:08;6.10;99.90
5258;DHT22;2651;51.594;9.928;2022-09-29T02:38:30;6.10;99.90
5258;DHT22;2651;51.594;9.928;2022-09-29T02:41:33;6.00;99.90
5258;DHT22;2651;51.594;9.928;2022-09-29T02:46:49;6.00;99.90
5258;DHT22;2651;51.594;9.928;2022-09-29T02:51:00;6.10;99.90
5258;DHT22;2651;51.594;9.928;2022-09-29T02:52:20;6.10;99.90
5258;DHT22;2651;51.594;9.928;2022-09-29T02:57:39;6.00;99.90
5258;DHT22;2651;51.594;9.928;2022-09-29T02:58:58;6.10;99.90
5258;DHT22;2651;51.594;9.928;2022-09-29T03:00:06;6.00;99.90
5258;DHT22;2651;51.594;9.928;2022-09-29T03:01:09;6.00;99.90
5258;DHT22;2651;51.594;9.928;2022-09-29T03:02:13;6.10;99.90
5258;DHT22;2651;51.594;9.928;2022-09-29T03:03:16;6.10;99.90
5258;DHT22;2651;51.594;9.928;2022-09-29T03:04:19;6.10;99.90
5258;DHT22;2651;51.594;9.928;2022-09-29T03:05:22;6.10;99.90
5258;DHT22;2651;51.594;9.928;2022-09-29T03:06:24;6.10;99.90
5258;DHT22;2651;51.594;9.928;2022-09-29T03:07:26;6.10;99.90
5258;DHT22;2651;51.594;9.928;2022-09-29T03:08:27;6.00;99.90
5258;DHT22;2651;51.594;9.928;2022-09-29T03:09:29;5.90;99.90
5258;DHT22;2651;51.594;9.928;2022-09-29T03:10:30;5.90;99.90
5258;DHT22;2651;51.594;9.928;2022-09-29T03:11:32;5.90;99.90
5258;DHT22;2651;51.594;9.928;2022-09-29T03:12:35;5.90;99.90
5258;DHT22;2651;51.594;9.928;2022-09-29T03:13:37;6.00;99.90
5258;DHT22;2651;51.594;9.928;2022-09-29T03:14:38;6.00;99.90
5258;DHT22;2651;51.594;9.928;2022-09-29T03:15:40;6.00;99.90
5258;DHT22;2651;51.594;9.928;2022-09-29T03:16:42;6.00;99.90
5258;DHT22;2651;51.594;9.928;2022-09-29T03:17:44;6.00;99.90
5258;DHT22;2651;51.594;9.928;2022-09-29T03:18:45;6.00;99.90
5258;DHT22;2651;51.594;9.928;2022-09-29T03:19:47;6.00;99.90
5258;DHT22;2651;51.594;9.928;2022-09-29T03:20:49;6.00;99.90
5258;DHT22;2651;51.594;9.928;2022-09-29T03:21:50;6.00;99.90
5258;DHT22;2651;51.594;9.928;2022-09-29T03:22:56;6.00;99.90
5258;DHT22;2651;51.594;9.928;2022-09-29T03:23:57;5.90;99.90
5258;DHT22;2651;51.594;9.928;2022-09-29T03:24:59;5.80;99.90
5258;DHT22;2651;51.594;9.928;2022-09-29T03:26:01;5.70;99.90
5258;DHT22;2651;51.594;9.928;2022-09-29T03:27:02;5.70;99.90
5258;DHT22;2651;51.594;9.928;2022-09-29T03:28:04;5.70;99.90
5258;DHT22;2651;51.594;9.928;2022-09-29T03:29:06;5.70;99.90
5258;DHT22;2651;51.594;9.928;2022-09-29T03:30:11;5.70;99.90
5258;DHT22;2651;51.594;9.928;2022-09-29T03:31:12;5.70;99.90
5258;DHT22;2651;51.594;9.928;2022-09-29T03:32:14;5.80;99.90
5258;DHT22;2651;51.594;9.928;2022-09-29T03:33:16;5.80;99.90
5258;DHT22;2651;51.594;9.928;2022-09-29T03:34:18;5.80;99.90
5258;DHT22;2651;51.594;9.928;2022-09-29T03:35:20;5.80;99.90
5258;DHT22;2651;51.594;9.928;2022-09-29T03:36:22;5.80;99.90
5258;DHT22;2651;51.594;9.928;2022-09-29T03:37:23;5.70;99.90
5258;DHT22;2651;51.594;9.928;2022-09-29T03:38:25;5.70;99.90
5258;DHT22;2651;51.594;9.928;2022-09-29T03:39:27;5.60;99.90
5258;DHT22;2651;51.594;9.928;2022-09-29T03:40:28;5.50;99.90
5258;DHT22;2651;51.594;9.928;2022-09-29T03:41:30;5.60;99.90
5258;DHT22;2651;51.594;9.928;2022-09-29T03:42:32;5.60;99.90
5258;DHT22;2651;51.594;9.928;2022-09-29T03:43:33;5.60;99.90
5258;DHT22;2651;51.594;9.928;2022-09-29T03:44:35;5.60;99.90
5258;DHT22;2651;51.594;9.928;2022-09-29T03:45:37;5.60;99.90
5258;DHT22;2651;51.594;9.928;2022-09-29T03:46:38;5.70;99.90
5258;DHT22;2651;51.594;9.928;2022-09-29T03:47:40;5.60;99.90
5258;DHT22;2651;51.594;9.928;2022-09-29T03:48:42;5.70;99.90
5258;DHT22;2651;51.594;9.928;2022-09-29T03:49:43;5.70;99.90
5258;DHT22;2651;51.594;9.928;2022-09-29T03:50:46;5.70;99.90
5258;DHT22;2651;51.594;9.928;2022-09-29T03:51:48;5.70;99.90
5258;DHT22;2651;51.594;9.928;2022-09-29T03:52:49;5.70;99.90
5258;DHT22;2651;51.594;9.928;2022-09-29T03:53:51;5.70;99.90
5258;DHT22;2651;51.594;9.928;2022-09-29T03:54:54;5.70;99.90
5258;DHT22;2651;51.594;9.928;2022-09-29T03:55:55;5.70;99.90
5258;DHT22;2651;51.594;9.928;2022-09-29T03:56:57;5.70;99.90
5258;DHT22;2651;51.594;9.928;2022-09-29T03:57:58;5.70;99.90
5258;DHT22;2651;51.594;9.928;2022-09-29T03:59:00;5.70;99.90
5258;DHT22;2651;51.594;9.928;2022-09-29T04:00:02;5.70;99.90
5258;DHT22;2651;51.594;9.928;2022-09-29T04:01:05;5.80;99.90
5258;DHT22;2651;51.594;9.928;2022-09-29T04:02:07;5.70;99.90
5258;DHT22;2651;51.594;9.928;2022-09-29T04:03:09;5.80;99.90
5258;DHT22;2651;51.594;9.928;2022-09-29T04:04:11;5.80;99.90
5258;DHT22;2651;51.594;9.928;2022-09-29T04:05:12;5.90;99.90
5258;DHT22;2651;51.594;9.928;2022-09-29T04:06:14;5.90;99.90
5258;DHT22;2651;51.594;9.928;2022-09-29T04:07:16;5.90;99.90
5258;DHT22;2651;51.594;9.928;2022-09-29T04:08:17;5.90;99.90
5258;DHT22;2651;51.594;9.928;2022-09-29T04:09:19;5.90;99.90
5258;DHT22;2651;51.594;9.928;2022-09-29T04:10:21;5.90;99.90
5258;DHT22;2651;51.594;9.928;2022-09-29T04:11:23;5.90;99.90
5258;DHT22;2651;51.594;9.928;2022-09-29T04:12:24;5.90;99.90
5258;DHT22;2651;51.594;9.928;2022-09-29T04:13:26;6.00;99.90
5258;DHT22;2651;51.594;9.928;2022-09-29T04:14:28;6.10;99.90
5258;DHT22;2651;51.594;9.928;2022-09-29T04:15:30;6.10;99.90
5258;DHT22;2651;51.594;9.928;2022-09-29T04:16:31;6.20;99.90
5258;DHT22;2651;51.594;9.928;2022-09-29T04:17:33;6.20;99.90
5258;DHT22;2651;51.594;9.928;2022-09-29T04:18:35;6.20;99.90
5258;DHT22;2651;51.594;9.928;2022-09-29T04:19:37;6.20;99.90
5258;DHT22;2651;51.594;9.928;2022-09-29T04:20:39;6.20;99.90
5258;DHT22;2651;51.594;9.928;2022-09-29T04:21:41;6.20;99.90
5258;DHT22;2651;51.594;9.928;2022-09-29T04:22:43;6.20;99.90
5258;DHT22;2651;51.594;9.928;2022-09-29T04:23:45;6.30;99.90
5258;DHT22;2651;51.594;9.928;2022-09-29T04:24:47;6.30;99.90
5258;DHT22;2651;51.594;9.928;2022-09-29T04:25:49;6.30;99.90
5258;DHT22;2651;51.594;9.928;2022-09-29T04:26:50;6.20;99.90
5258;DHT22;2651;51.594;9.928;2022-09-29T04:27:52;6.20;99.90
5258;DHT22;2651;51.594;9.928;2022-09-29T04:28:55;6.20;99.90
5258;DHT22;2651;51.594;9.928;2022-09-29T04:29:56;6.20;99.90
5258;DHT22;2651;51.594;9.928;2022-09-29T04:30:58;6.20;99.90
5258;DHT22;2651;51.594;9.928;2022-09-29T04:32:00;6.20;99.90
5258;DHT22;2651;51.594;9.928;2022-09-29T04:33:02;6.20;99.90
5258;DHT22;2651;51.594;9.928;2022-09-29T04:34:03;6.20;99.90
5258;DHT22;2651;51.594;9.928;2022-09-29T04:35:05;6.10;99.90
5258;DHT22;2651;51.594;9.928;2022-09-29T04:36:07;6.20;99.90
5258;DHT22;2651;51.594;9.928;2022-09-29T04:37:09;6.20;99.90
5258;DHT22;2651;51.594;9.928;2022-09-29T04:38:14;6.20;99.90
5258;DHT22;2651;51.594;9.928;2022-09-29T04:39:15;6.20;99.90
5258;DHT22;2651;51.594;9.928;2022-09-29T04:40:17;6.20;99.90
5258;DHT22;2651;51.594;9.928;2022-09-29T04:41:19;6.20;99.90
5258;DHT22;2651;51.594;9.928;2022-09-29T04:42:21;6.30;99.90
5258;DHT22;2651;51.594;9.928;2022-09-29T04:43:22;6.30;99.90
5258;DHT22;2651;51.594;9.928;2022-09-29T04:44:24;6.30;99.90
5258;DHT22;2651;51.594;9.928;2022-09-29T04:45:26;6.30;99.90
5258;DHT22;2651;51.594;9.928;2022-09-29T04:46:28;6.30;99.90
5258;DHT22;2651;51.594;9.928;2022-09-29T04:47:30;6.10;99.90
5258;DHT22;2651;51.594;9.928;2022-09-29T04:48:31;6.10;99.90
5258;DHT22;2651;51.594;9.928;2022-09-29T04:49:36;6.10;99.90
5258;DHT22;2651;51.594;9.928;2022-09-29T04:50:38;6.20;99.90
5258;DHT22;2651;51.594;9.928;2022-09-29T04:51:40;6.20;99.90
5258;DHT22;2651;51.594;9.928;2022-09-29T04:52:42;6.20;99.90
5258;DHT22;2651;51.594;9.928;2022-09-29T04:53:44;6.20;99.90
5258;DHT22;2651;51.594;9.928;2022-09-29T04:54:46;6.10;99.90
5258;DHT22;2651;51.594;9.928;2022-09-29T04:55:47;6.00;99.90
5258;DHT22;2651;51.594;9.928;2022-09-29T04:56:49;6.00;99.90
5258;DHT22;2651;51.594;9.928;2022-09-29T04:57:51;5.90;99.90
5258;DHT22;2651;51.594;9.928;2022-09-29T04:58:53;5.80;99.90
5258;DHT22;2651;51.594;9.928;2022-09-29T04:59:55;5.90;99.90
5258;DHT22;2651;51.594;9.928;2022-09-29T05:01:07;5.90;99.90
5258;DHT22;2651;51.594;9.928;2022-09-29T05:02:09;6.00;99.90
5258;DHT22;2651;51.594;9.928;2022-09-29T05:03:11;6.10;99.90
5258;DHT22;2651;51.594;9.928;2022-09-29T05:04:12;6.10;99.90
5258;DHT22;2651;51.594;9.928;2022-09-29T05:05:14;6.10;99.90
5258;DHT22;2651;51.594;9.928;2022-09-29T05:06:16;6.20;99.90
5258;DHT22;2651;51.594;9.928;2022-09-29T05:07:17;6.10;99.90
5258;DHT22;2651;51.594;9.928;2022-09-29T05:08:19;6.10;99.90
5258;DHT22;2651;51.594;9.928;2022-09-29T05:09:21;6.20;99.90
5258;DHT22;2651;51.594;9.928;2022-09-29T05:10:25;6.20;99.90
5258;DHT22;2651;51.594;9.928;2022-09-29T05:11:27;6.20;99.90
5258;DHT22;2651;51.594;9.928;2022-09-29T05:12:29;6.20;99.90
5258;DHT22;2651;51.594;9.928;2022-09-29T05:13:31;6.20;99.90
5258;DHT22;2651;51.594;9.928;2022-09-29T05:14:32;6.20;99.90
5258;DHT22;2651;51.594;9.928;2022-09-29T05:15:35;6.10;99.90
5258;DHT22;2651;51.594;9.928;2022-09-29T05:16:37;6.10;99.90
5258;DHT22;2651;51.594;9.928;2022-09-29T05:17:38;6.10;99.90
5258;DHT22;2651;51.594;9.928;2022-09-29T05:18:40;6.10;99.90
5258;DHT22;2651;51.594;9.928;2022-09-29T05:19:41;6.10;99.90
5258;DHT22;2651;51.594;9.928;2022-09-29T05:20:43;6.10;99.90
5258;DHT22;2651;51.594;9.928;2022-09-29T05:22:05;6.10;99.90
5258;DHT22;2651;51.594;9.928;2022-09-29T05:23:07;6.10;99.90
5258;DHT22;2651;51.594;9.928;2022-09-29T05:24:10;6.10;99.90
5258;DHT22;2651;51.594;9.928;2022-09-29T05:25:12;6.20;99.90
5258;DHT22;2651;51.594;9.928;2022-09-29T05:26:14;6.20;99.90
5258;DHT22;2651;51.594;9.928;2022-09-29T05:27:15;6.10;99.90
5258;DHT22;2651;51.594;9.928;2022-09-29T05:28:17;6.00;99.90
5258;DHT22;2651;51.594;9.928;2022-09-29T05:29:19;6.00;99.90
5258;DHT22;2651;51.594;9.928;2022-09-29T05:30:20;6.00;99.90
5258;DHT22;2651;51.594;9.928;2022-09-29T05:31:22;6.00;99.90
5258;DHT22;2651;51.594;9.928;2022-09-29T05:32:24;6.00;99.90
5258;DHT22;2651;51.594;9.928;2022-09-29T05:33:25;5.90;99.90
5258;DHT22;2651;51.594;9.928;2022-09-29T05:34:27;6.00;99.90
5258;DHT22;2651;51.594;9.928;2022-09-29T05:35:29;6.00;99.90
5258;DHT22;2651;51.594;9.928;2022-09-29T05:36:30;5.90;99.90
5258;DHT22;2651;51.594;9.928;2022-09-29T05:37:32;6.00;99.90
5258;DHT22;2651;51.594;9.928;2022-09-29T05:38:37;5.90;99.90
5258;DHT22;2651;51.594;9.928;2022-09-29T05:39:38;6.00;99.90
5258;DHT22;2651;51.594;9.928;2022-09-29T05:40:40;5.90;99.90
5258;DHT22;2651;51.594;9.928;2022-09-29T05:41:42;5.90;99.90
5258;DHT22;2651;51.594;9.928;2022-09-29T05:42:44;6.00;99.90
5258;DHT22;2651;51.594;9.928;2022-09-29T05:43:45;6.00;99.90
5258;DHT22;2651;51.594;9.928;2022-09-29T05:44:47;5.90;99.90
5258;DHT22;2651;51.594;9.928;2022-09-29T05:45:49;6.00;99.90
5258;DHT22;2651;51.594;9.928;2022-09-29T05:46:50;5.90;99.90
5258;DHT22;2651;51.594;9.928;2022-09-29T05:47:52;5.90;99.90
5258;DHT22;2651;51.594;9.928;2022-09-29T05:48:55;5.90;99.90
5258;DHT22;2651;51.594;9.928;2022-09-29T05:49:58;5.90;99.90
5258;DHT22;2651;51.594;9.928;2022-09-29T05:51:08;5.90;99.90
5258;DHT22;2651;51.594;9.928;2022-09-29T05:52:10;5.90;99.90
5258;DHT22;2651;51.594;9.928;2022-09-29T05:53:11;5.90;99.90
5258;DHT22;2651;51.594;9.928;2022-09-29T05:54:14;5.90;99.90
5258;DHT22;2651;51.594;9.928;2022-09-29T05:55:16;5.90;99.90
5258;DHT22;2651;51.594;9.928;2022-09-29T05:56:23;6.00;99.90
5258;DHT22;2651;51.594;9.928;2022-09-29T05:57:24;6.10;99.90
5258;DHT22;2651;51.594;9.928;2022-09-29T05:58:26;6.10;99.90
5258;DHT22;2651;51.594;9.928;2022-09-29T05:59:27;6.10;99.90
5258;DHT22;2651;51.594;9.928;2022-09-29T06:00:29;6.10;99.90
5258;DHT22;2651;51.594;9.928;2022-09-29T06:01:32;6.20;99.90
5258;DHT22;2651;51.594;9.928;2022-09-29T06:02:33;6.20;99.90
5258;DHT22;2651;51.594;9.928;2022-09-29T06:03:36;6.20;99.90
5258;DHT22;2651;51.594;9.928;2022-09-29T06:04:37;6.10;99.90
5258;DHT22;2651;51.594;9.928;2022-09-29T06:05:41;6.10;99.90
5258;DHT22;2651;51.594;9.928;2022-09-29T06:06:43;6.00;99.90
5258;DHT22;2651;51.594;9.928;2022-09-29T06:07:45;5.90;99.90
5258;DHT22;2651;51.594;9.928;2022-09-29T06:08:47;6.00;99.90
5258;DHT22;2651;51.594;9.928;2022-09-29T06:09:49;6.00;99.90
5258;DHT22;2651;51.594;9.928;2022-09-29T06:10:51;6.00;99.90
5258;DHT22;2651;51.594;9.928;2022-09-29T06:11:52;6.10;99.90
5258;DHT22;2651;51.594;9.928;2022-09-29T06:12:54;6.10;99.90
5258;DHT22;2651;51.594;9.928;2022-09-29T06:13:57;6.00;99.90
5258;DHT22;2651;51.594;9.928;2022-09-29T06:14:59;6.10;99.90
5258;DHT22;2651;51.594;9.928;2022-09-29T06:16:01;6.10;99.90
5258;DHT22;2651;51.594;9.928;2022-09-29T06:17:03;6.20;99.90
5258;DHT22;2651;51.594;9.928;2022-09-29T06:18:04;6.30;99.90
5258;DHT22;2651;51.594;9.928;2022-09-29T06:19:06;6.30;99.90
5258;DHT22;2651;51.594;9.928;2022-09-29T06:20:08;6.30;99.90
5258;DHT22;2651;51.594;9.928;2022-09-29T06:21:12;6.40;99.90
5258;DHT22;2651;51.594;9.928;2022-09-29T06:22:14;6.40;99.90
5258;DHT22;2651;51.594;9.928;2022-09-29T06:23:15;6.40;99.90
5258;DHT22;2651;51.594;9.928;2022-09-29T06:24:17;6.40;99.90
5258;DHT22;2651;51.594;9.928;2022-09-29T06:25:19;6.40;99.90
5258;DHT22;2651;51.594;9.928;2022-09-29T06:26:21;6.50;99.90
5258;DHT22;2651;51.594;9.928;2022-09-29T06:27:25;6.50;99.90
5258;DHT22;2651;51.594;9.928;2022-09-29T06:28:27;6.50;99.90
5258;DHT22;2651;51.594;9.928;2022-09-29T06:29:29;6.50;99.90
5258;DHT22;2651;51.594;9.928;2022-09-29T06:30:31;6.60;99.90
5258;DHT22;2651;51.594;9.928;2022-09-29T06:31:32;6.60;99.90
5258;DHT22;2651;51.594;9.928;2022-09-29T06:32:34;6.60;99.90
5258;DHT22;2651;51.594;9.928;2022-09-29T06:33:36;6.60;99.90
5258;DHT22;2651;51.594;9.928;2022-09-29T06:34:38;6.60;99.90
5258;DHT22;2651;51.594;9.928;2022-09-29T06:36:03;6.50;99.90
5258;DHT22;2651;51.594;9.928;2022-09-29T06:37:24;6.50;99.90
5258;DHT22;2651;51.594;9.928;2022-09-29T06:38:35;6.50;99.90
5258;DHT22;2651;51.594;9.928;2022-09-29T06:39:37;6.50;99.90
5258;DHT22;2651;51.594;9.928;2022-09-29T06:40:39;6.50;99.90
5258;DHT22;2651;51.594;9.928;2022-09-29T06:41:41;6.50;99.90
5258;DHT22;2651;51.594;9.928;2022-09-29T06:42:44;6.50;99.90
5258;DHT22;2651;51.594;9.928;2022-09-29T06:43:46;6.50;99.90
5258;DHT22;2651;51.594;9.928;2022-09-29T06:44:48;6.50;99.90
5258;DHT22;2651;51.594;9.928;2022-09-29T06:45:49;6.50;99.90
5258;DHT22;2651;51.594;9.928;2022-09-29T06:46:51;6.50;99.90
5258;DHT22;2651;51.594;9.928;2022-09-29T06:47:59;6.50;99.90
5258;DHT22;2651;51.594;9.928;2022-09-29T06:49:01;6.40;99.90
5258;DHT22;2651;51.594;9.928;2022-09-29T06:50:03;6.50;99.90
5258;DHT22;2651;51.594;9.928;2022-09-29T06:51:24;6.50;99.90
5258;DHT22;2651;51.594;9.928;2022-09-29T06:52:41;6.50;99.90
5258;DHT22;2651;51.594;9.928;2022-09-29T06:53:48;6.60;99.90
5258;DHT22;2651;51.594;9.928;2022-09-29T06:54:49;6.60;99.90
5258;DHT22;2651;51.594;9.928;2022-09-29T06:55:55;6.70;99.90
5258;DHT22;2651;51.594;9.928;2022-09-29T06:57:01;6.60;99.90
5258;DHT22;2651;51.594;9.928;2022-09-29T06:58:03;6.60;99.90
5258;DHT22;2651;51.594;9.928;2022-09-29T06:59:05;6.70;99.90
5258;DHT22;2651;51.594;9.928;2022-09-29T07:00:07;6.70;99.90
5258;DHT22;2651;51.594;9.928;2022-09-29T07:01:09;6.60;99.90
5258;DHT22;2651;51.594;9.928;2022-09-29T07:02:11;6.70;99.90
5258;DHT22;2651;51.594;9.928;2022-09-29T07:03:13;6.70;99.90
5258;DHT22;2651;51.594;9.928;2022-09-29T07:04:15;6.70;99.90
5258;DHT22;2651;51.594;9.928;2022-09-29T07:05:17;6.80;99.90
5258;DHT22;2651;51.594;9.928;2022-09-29T07:06:19;6.80;99.90
5258;DHT22;2651;51.594;9.928;2022-09-29T07:07:21;6.90;99.90
5258;DHT22;2651;51.594;9.928;2022-09-29T07:08:22;6.90;99.90
5258;DHT22;2651;51.594;9.928;2022-09-29T07:09:24;6.90;99.90
5258;DHT22;2651;51.594;9.928;2022-09-29T07:10:26;7.00;99.90
5258;DHT22;2651;51.594;9.928;2022-09-29T07:11:28;7.00;99.90
5258;DHT22;2651;51.594;9.928;2022-09-29T07:12:29;7.00;99.90
5258;DHT22;2651;51.594;9.928;2022-09-29T07:13:31;6.90;99.90
5258;DHT22;2651;51.594;9.928;2022-09-29T07:14:33;6.90;99.90
5258;DHT22;2651;51.594;9.928;2022-09-29T07:15:34;6.90;99.90
5258;DHT22;2651;51.594;9.928;2022-09-29T07:16:36;6.80;99.90
5258;DHT22;2651;51.594;9.928;2022-09-29T07:17:38;6.80;99.90
5258;DHT22;2651;51.594;9.928;2022-09-29T07:18:41;6.80;99.90
5258;DHT22;2651;51.594;9.928;2022-09-29T07:19:43;6.90;99.90
5258;DHT22;2651;51.594;9.928;2022-09-29T07:20:44;6.90;99.90
5258;DHT22;2651;51.594;9.928;2022-09-29T07:21:47;6.90;99.90
5258;DHT22;2651;51.594;9.928;2022-09-29T07:22:49;6.90;99.90
5258;DHT22;2651;51.594;9.928;2022-09-29T07:23:50;6.90;99.90
5258;DHT22;2651;51.594;9.928;2022-09-29T07:24:52;6.80;99.90
5258;DHT22;2651;51.594;9.928;2022-09-29T07:25:54;6.90;99.90
5258;DHT22;2651;51.594;9.928;2022-09-29T07:26:56;6.90;99.90
5258;DHT22;2651;51.594;9.928;2022-09-29T07:27:57;7.00;99.90
5258;DHT22;2651;51.594;9.928;2022-09-29T07:28:59;7.00;99.90
5258;DHT22;2651;51.594;9.928;2022-09-29T07:30:00;6.90;99.90
5258;DHT22;2651;51.594;9.928;2022-09-29T07:31:11;6.90;99.90
5258;DHT22;2651;51.594;9.928;2022-09-29T07:32:17;6.90;99.90
5258;DHT22;2651;51.594;9.928;2022-09-29T07:33:30;6.80;99.90
5258;DHT22;2651;51.594;9.928;2022-09-29T07:34:39;6.70;99.90
5258;DHT22;2651;51.594;9.928;2022-09-29T07:35:41;6.70;99.90